Time;durP1;ratioP1;P1;durP2;ratioP2;P2;SDS_P1;SDS_P2;PMS_P1;PMS_P2;Temp;Humidity;BMP_temperature;BMP_pressure;BME280_temperature;BME280_humidity;BME280_pressure;Samples;Min_cycle;Max_cycle;Signal;HPM_P1;HPM_P2
2022/12/13 00:00:13;;;;;;;33.10;14.15;;;;;;;-9.27;100.00;95149.00;1042911;28;20021;-66
2022/12/13 00:00:44;;;;;;;30.65;13.63;;;;;;;-9.26;100.00;95149.81;1042908;28;20074;-66
2022/12/13 00:01:15;;;;;;;34.03;14.47;;;;;;;-9.27;100.00;95153.31;1039663;28;20485;-66
2022/12/13 00:01:47;;;;;;;31.83;15.07;;;;;;;-9.28;100.00;95154.25;1035605;28;20491;-66
2022/12/13 00:02:18;;;;;;;30.65;14.65;;;;;;;-9.28;100.00;95149.97;1034134;28;20034;-67
2022/12/13 00:02:48;;;;;;;33.30;15.57;;;;;;;-9.27;100.00;95149.00;1038458;28;20086;-66
2022/12/13 00:03:19;;;;;;;29.43;14.00;;;;;;;-9.29;100.00;95150.94;1043593;28;20024;-67
2022/12/13 00:03:56;;;;;;;32.43;14.33;;;;;;;-9.28;100.00;95151.72;1051280;28;20024;-68
2022/12/13 00:04:27;;;;;;;30.27;14.02;;;;;;;-9.29;100.00;95156.00;1050213;28;20261;-68
2022/12/13 00:04:57;;;;;;;31.33;14.33;;;;;;;-9.29;100.00;95148.41;1051406;28;20508;-66
2022/12/13 00:05:28;;;;;;;31.00;14.80;;;;;;;-9.33;100.00;95149.63;1047030;28;20490;-68
2022/12/13 00:05:58;;;;;;;29.43;14.43;;;;;;;-9.45;100.00;95122.94;1046926;28;20023;-66
2022/12/13 00:06:29;;;;;;;28.93;13.87;;;;;;;-9.31;100.00;95152.81;1038680;28;20026;-67
2022/12/13 00:07:00;;;;;;;28.60;14.93;;;;;;;-9.31;100.00;95155.38;1030921;28;20029;-67
2022/12/13 00:07:30;;;;;;;29.83;14.97;;;;;;;-9.37;100.00;95139.94;1035146;28;20023;-66
2022/12/13 00:08:01;;;;;;;35.07;15.63;;;;;;;-9.31;100.00;95152.81;1034849;28;20018;-66
2022/12/13 00:08:31;;;;;;;27.27;13.83;;;;;;;-9.31;100.00;95147.75;1043116;28;20017;-66
2022/12/13 00:09:02;;;;;;;32.63;15.17;;;;;;;-9.31;100.00;95150.28;1051355;28;20024;-66
2022/12/13 00:09:33;;;;;;;29.40;13.45;;;;;;;-9.31;100.00;95152.03;1047120;28;20510;-68
2022/12/13 00:10:04;;;;;;;28.63;14.90;;;;;;;-9.32;100.00;95148.69;1043111;28;20079;-67
2022/12/13 00:10:34;;;;;;;30.57;13.63;;;;;;;-9.32;100.00;95151.25;1038664;28;20279;-67
2022/12/13 00:11:06;;;;;;;29.33;13.67;;;;;;;-9.32;100.00;95151.25;1038451;28;20423;-68
2022/12/13 00:11:37;;;;;;;31.10;13.82;;;;;;;-9.33;100.00;95159.78;1038855;28;20041;-67
2022/12/13 00:12:07;;;;;;;32.80;13.63;;;;;;;-9.34;100.00;95153.13;1039161;28;20060;-67
2022/12/13 00:12:38;;;;;;;31.40;14.60;;;;;;;-9.35;100.00;95149.00;1042267;28;20017;-68
2022/12/13 00:13:08;;;;;;;31.03;14.17;;;;;;;-9.36;100.00;95157.56;1042942;28;20475;-67
2022/12/13 00:13:40;;;;;;;31.90;13.57;;;;;;;-9.37;100.00;95148.34;1047274;28;20024;-67
2022/12/13 00:14:12;;;;;;;28.10;14.20;;;;;;;-9.35;100.00;95150.75;1038951;28;20473;-66
2022/12/13 00:14:43;;;;;;;26.65;13.48;;;;;;;-9.36;100.00;95157.56;1034681;28;20018;-66
2022/12/13 00:15:13;;;;;;;29.07;13.83;;;;;;;-9.36;100.00;95152.47;1038959;28;20025;-66
2022/12/13 00:15:54;;;;;;;35.60;14.23;;;;;;;-9.37;100.00;95147.56;1039828;28;20022;-65
2022/12/13 00:16:25;;;;;;;29.90;14.20;;;;;;;-9.38;100.00;95154.38;1048659;28;20070;-64
2022/12/13 00:16:56;;;;;;;33.20;13.80;;;;;;;-9.36;100.00;95149.94;1050888;28;20024;-66
2022/12/13 00:17:26;;;;;;;33.63;13.50;;;;;;;-9.38;100.00;95149.31;1045140;28;20278;-66
2022/12/13 00:17:57;;;;;;;29.27;14.57;;;;;;;-9.39;100.00;95144.38;1038738;28;20022;-65
2022/12/13 00:18:28;;;;;;;27.23;13.00;;;;;;;-9.39;100.00;95150.25;1038854;28;20040;-65
2022/12/13 00:18:58;;;;;;;29.03;14.00;;;;;;;-9.39;100.00;95145.16;1035067;28;20014;-65
2022/12/13 00:19:31;;;;;;;30.38;15.30;;;;;;;-9.40;100.00;95148.66;1031978;28;20025;-65
2022/12/13 00:20:03;;;;;;;33.78;15.55;;;;;;;-9.41;100.00;95141.22;1035615;28;20052;-64
2022/12/13 00:20:34;;;;;;;31.98;13.95;;;;;;;-9.40;100.00;95152.94;1034715;28;20021;-65
2022/12/13 00:21:06;;;;;;;32.70;14.05;;;;;;;-9.40;100.00;95153.75;1035064;28;20452;-65
2022/12/13 00:21:36;;;;;;;29.88;14.82;;;;;;;-9.39;100.00;95144.38;1035387;28;20411;-66
2022/12/13 00:22:07;;;;;;;35.30;15.47;;;;;;;-9.40;100.00;95150.41;1040465;28;20021;-66
2022/12/13 00:22:38;;;;;;;33.83;14.93;;;;;;;-9.38;100.00;95151.84;1034138;28;20014;-65
2022/12/13 00:23:08;;;;;;;31.97;14.67;;;;;;;-9.38;100.00;95146.78;1029484;28;20372;-66
2022/12/13 00:23:39;;;;;;;28.63;13.60;;;;;;;-9.39;100.00;95145.16;1030868;28;20494;-66
2022/12/13 00:24:10;;;;;;;28.77;14.00;;;;;;;-9.38;100.00;95146.78;1030903;28;20026;-64
2022/12/13 00:24:41;;;;;;;30.33;13.97;;;;;;;-9.37;100.00;95148.34;1032070;28;20208;-64
2022/12/13 00:25:12;;;;;;;34.27;14.83;;;;;;;-9.36;100.00;95149.16;1038819;28;20029;-66
2022/12/13 00:25:42;;;;;;;32.50;14.60;;;;;;;-9.36;100.00;95149.16;1038677;28;20139;-66
2022/12/13 00:26:15;;;;;;;31.67;15.80;;;;;;;-9.49;100.00;95129.25;1042380;28;20098;-67
2022/12/13 00:26:46;;;;;;;35.97;15.35;;;;;;;-9.36;100.00;95147.41;1038629;28;20100;-66
2022/12/13 00:27:16;;;;;;;33.57;15.47;;;;;;;-9.37;100.00;95150.91;1038939;28;20124;-69
2022/12/13 00:27:47;;;;;;;33.20;15.90;;;;;;;-9.36;100.00;95144.84;1039366;28;20079;-68
2022/12/13 00:28:17;;;;;;;37.77;16.90;;;;;;;-9.36;100.00;95149.16;1050129;28;20516;-66
2022/12/13 00:28:50;;;;;;;31.50;15.17;;;;;;;-9.37;100.00;95152.63;1050929;28;20020;-69
2022/12/13 00:29:20;;;;;;;33.92;15.65;;;;;;;-9.38;100.00;95139.16;1050655;28;20023;-67
2022/12/13 00:29:51;;;;;;;30.83;14.70;;;;;;;-9.38;100.00;95140.91;1051183;28;20103;-69
2022/12/13 00:30:21;;;;;;;33.87;15.00;;;;;;;-9.39;100.00;95137.53;1051169;28;20367;-66
2022/12/13 00:30:56;;;;;;;32.10;15.23;;;;;;;-9.40;100.00;95138.50;1050888;28;20440;-66
2022/12/13 00:31:26;;;;;;;33.13;15.20;;;;;;;-9.40;100.00;95142.78;1046401;28;20097;-70
2022/12/13 00:31:57;;;;;;;31.23;15.20;;;;;;;-9.41;100.00;95136.91;1046886;28;20055;-67
2022/12/13 00:32:27;;;;;;;32.50;15.10;;;;;;;-9.41;100.00;95136.13;1046590;28;20305;-66
2022/12/13 00:32:58;;;;;;;31.30;14.67;;;;;;;-9.43;100.00;95143.88;1050873;28;20032;-67
2022/12/13 00:33:28;;;;;;;34.37;16.13;;;;;;;-9.43;100.00;95136.28;1050504;28;20567;-67
2022/12/13 00:33:59;;;;;;;29.40;14.73;;;;;;;-9.43;100.00;95138.81;1050807;28;20359;-67
2022/12/13 00:34:29;;;;;;;30.70;14.63;;;;;;;-9.45;100.00;95145.81;1046677;28;20028;-67
2022/12/13 00:35:03;;;;;;;33.23;15.07;;;;;;;-9.45;100.00;95140.72;1042473;28;20078;-66
2022/12/13 00:35:38;;;;;;;28.05;14.35;;;;;;;-9.46;100.00;95144.19;1038524;28;20090;-68
2022/12/13 00:36:08;;;;;;;33.70;13.98;;;;;;;-9.47;100.00;95147.69;1035516;28;20413;-66
2022/12/13 00:36:39;;;;;;;32.93;15.43;;;;;;;-9.47;100.00;95142.59;1035384;28;20026;-66
2022/12/13 00:37:09;;;;;;;30.27;14.30;;;;;;;-9.50;100.00;95143.69;1034754;28;20022;-70
2022/12/13 00:37:40;;;;;;;30.80;16.00;;;;;;;-9.51;100.00;95141.34;1039049;28;20049;-67
2022/12/13 00:38:13;;;;;;;34.87;16.43;;;;;;;-9.52;100.00;95142.28;1046590;28;20009;-66
2022/12/13 00:38:44;;;;;;;34.20;14.98;;;;;;;-9.54;100.00;95139.09;1043620;28;20107;-65
2022/12/13 00:39:15;;;;;;;34.53;15.90;;;;;;;-9.56;100.00;95139.22;1050708;28;20407;-68
2022/12/13 00:39:45;;;;;;;39.83;17.05;;;;;;;-9.57;100.00;95137.66;1050690;28;20016;-67
2022/12/13 00:40:16;;;;;;;35.53;16.07;;;;;;;-9.58;100.00;95135.28;1050796;28;20027;-67
2022/12/13 00:40:46;;;;;;;37.57;16.43;;;;;;;-9.57;100.00;95136.88;1046252;28;20063;-68
2022/12/13 00:41:18;;;;;;;34.07;16.63;;;;;;;-9.57;100.00;95139.41;1046803;28;20503;-69
2022/12/13 00:41:49;;;;;;;35.03;15.77;;;;;;;-9.57;100.00;95141.94;1046420;28;20427;-68
2022/12/13 00:42:19;;;;;;;32.83;14.90;;;;;;;-9.59;100.00;95142.09;1046175;28;20029;-69
2022/12/13 00:42:50;;;;;;;36.87;15.73;;;;;;;-9.58;100.00;95135.28;1046583;28;20506;-66
2022/12/13 00:43:21;;;;;;;39.17;16.30;;;;;;;-9.57;100.00;95129.25;1046809;28;20024;-66
2022/12/13 00:43:51;;;;;;;35.30;16.05;;;;;;;-9.58;100.00;95141.16;1050589;28;20032;-69
2022/12/13 00:44:22;;;;;;;35.13;14.57;;;;;;;-9.57;100.00;95131.78;1046749;28;20031;-67
2022/12/13 00:44:53;;;;;;;36.47;16.03;;;;;;;-9.56;100.00;95138.44;1050908;28;20056;-68
2022/12/13 00:45:23;;;;;;;31.80;16.03;;;;;;;-9.56;100.00;95140.97;1050748;28;20085;-70
2022/12/13 00:45:54;;;;;;;36.23;16.23;;;;;;;-9.56;100.00;95138.44;1046288;28;20028;-68
2022/12/13 00:46:24;;;;;;;37.43;16.57;;;;;;;-9.56;100.00;95133.38;1046592;28;20020;-68
2022/12/13 00:46:55;;;;;;;37.00;17.00;;;;;;;-9.56;100.00;95128.28;1038485;28;20071;-66
2022/12/13 00:47:25;;;;;;;41.37;17.90;;;;;;;-9.67;100.00;95115.88;1038262;28;20028;-67
2022/12/13 00:47:56;;;;;;;41.37;17.10;;;;;;;-9.57;100.00;95132.56;1038363;28;20040;-67
2022/12/13 00:48:27;;;;;;;37.63;17.07;;;;;;;-9.56;100.00;95135.91;1038602;28;20053;-67
2022/12/13 00:48:59;;;;;;;38.70;17.65;;;;;;;-9.55;100.00;95134.97;1042503;28;20028;-67
2022/12/13 00:49:29;;;;;;;41.75;19.08;;;;;;;-9.57;100.00;95135.13;1042860;28;20063;-70
2022/12/13 00:50:00;;;;;;;36.07;16.33;;;;;;;-9.56;100.00;95130.81;1046802;28;20549;-68
2022/12/13 00:50:30;;;;;;;35.73;16.73;;;;;;;-9.56;100.00;95135.91;1046972;28;20020;-69
2022/12/13 00:51:05;;;;;;;35.07;15.70;;;;;;;-9.57;100.00;95132.56;1042308;28;20024;-65
2022/12/13 00:51:36;;;;;;;35.17;16.42;;;;;;;-9.57;100.00;95129.25;1038243;28;20063;-67
2022/12/13 00:52:06;;;;;;;39.13;18.10;;;;;;;-9.57;100.00;95130.03;1038799;28;20657;-67
2022/12/13 00:52:37;;;;;;;33.33;17.23;;;;;;;-9.58;100.00;95131.00;1038964;28;20017;-67
2022/12/13 00:53:08;;;;;;;31.37;15.07;;;;;;;-9.58;100.00;95127.66;1042574;28;20272;-66
2022/12/13 00:53:38;;;;;;;33.80;16.45;;;;;;;-9.58;100.00;95133.53;1042558;28;20569;-68
2022/12/13 00:54:09;;;;;;;34.97;16.27;;;;;;;-9.59;100.00;95134.50;1042244;28;20107;-69
2022/12/13 00:54:39;;;;;;;31.13;15.07;;;;;;;-9.61;100.00;95130.50;1042589;28;20017;-70
2022/12/13 00:55:10;;;;;;;38.37;18.13;;;;;;;-9.63;100.00;95132.41;1046849;28;20017;-68
2022/12/13 00:55:43;;;;;;;37.67;17.43;;;;;;;-9.61;100.00;95130.50;1050519;28;20413;-66
2022/12/13 00:56:20;;;;;;;43.47;18.67;;;;;;;-9.61;100.00;95130.50;1050655;28;20021;-70
2022/12/13 00:56:50;;;;;;;42.75;19.00;;;;;;;-9.60;100.00;95132.09;1051023;28;20400;-67
2022/12/13 00:57:21;;;;;;;40.33;16.93;;;;;;;-9.59;100.00;95128.59;1051001;28;20012;-70
2022/12/13 00:57:55;;;;;;;40.30;18.73;;;;;;;-9.61;100.00;95127.97;1051281;28;20016;-69
2022/12/13 00:58:25;;;;;;;40.55;17.85;;;;;;;-9.62;100.00;95133.97;1050900;28;20115;-69
2022/12/13 00:58:56;;;;;;;38.17;17.73;;;;;;;-9.63;100.00;95130.66;1051282;28;21023;-67
2022/12/13 00:59:26;;;;;;;36.87;17.03;;;;;;;-9.61;100.00;95138.91;1046387;28;20469;-66
2022/12/13 00:59:58;;;;;;;37.27;18.00;;;;;;;-9.62;100.00;95128.91;1046613;28;20050;-69
2022/12/13 01:00:29;;;;;;;34.85;16.27;;;;;;;-9.60;100.00;95134.63;1046225;28;20032;-66
2022/12/13 01:01:14;;;;;;;36.63;17.23;;;;;;;-9.61;100.00;95130.50;1046683;28;20032;-68
2022/12/13 01:01:44;;;;;;;38.40;17.70;;;;;;;-9.61;100.00;95128.75;1046636;28;20107;-67
2022/12/13 01:02:15;;;;;;;39.83;17.13;;;;;;;-9.59;100.00;95131.94;1042900;28;20029;-69
2022/12/13 01:02:45;;;;;;;42.17;18.97;;;;;;;-9.59;100.00;95133.66;1044809;28;20100;-67
2022/12/13 01:03:19;;;;;;;44.87;19.13;;;;;;;-9.60;100.00;95127.81;1042366;28;20248;-65
2022/12/13 01:03:49;;;;;;;41.67;17.33;;;;;;;-9.59;100.00;95131.94;1042602;28;20033;-66
2022/12/13 01:04:20;;;;;;;40.20;16.87;;;;;;;-9.60;100.00;95130.34;1041754;28;20053;-67
2022/12/13 01:04:50;;;;;;;42.60;17.60;;;;;;;-9.60;100.00;95127.00;1043043;28;20020;-67
2022/12/13 01:05:21;;;;;;;38.87;17.30;;;;;;;-9.60;100.00;95127.81;1047270;28;20020;-68
2022/12/13 01:05:51;;;;;;;39.17;17.80;;;;;;;-9.59;100.00;95131.13;1042676;28;20017;-67
2022/12/13 01:06:28;;;;;;;38.37;17.40;;;;;;;-9.59;100.00;95133.66;1042576;28;20383;-68
2022/12/13 01:06:58;;;;;;;33.65;16.75;;;;;;;-9.59;100.00;95123.50;1042442;28;20121;-69
2022/12/13 01:07:29;;;;;;;40.33;18.30;;;;;;;-9.60;100.00;95132.88;1040438;28;20060;-67
2022/12/13 01:07:59;;;;;;;36.97;16.83;;;;;;;-9.59;100.00;95121.78;1047508;28;20168;-67
2022/12/13 01:08:30;;;;;;;31.90;17.30;;;;;;;-9.61;100.00;95123.69;1051150;28;20027;-68
2022/12/13 01:09:00;;;;;;;37.77;17.23;;;;;;;-9.61;100.00;95122.88;1050949;28;20258;-65
2022/12/13 01:09:32;;;;;;;32.70;16.77;;;;;;;-9.61;100.00;95127.97;1051046;28;20047;-67
2022/12/13 01:10:04;;;;;;;32.45;16.20;;;;;;;-9.61;100.00;95128.75;1051088;28;20454;-68
2022/12/13 01:10:35;;;;;;;31.05;14.43;;;;;;;-9.62;100.00;95118.75;1047064;28;20722;-67
2022/12/13 01:11:05;;;;;;;31.97;15.20;;;;;;;-9.58;100.00;95125.13;1047050;28;20017;-66
2022/12/13 01:11:36;;;;;;;31.23;15.47;;;;;;;-9.59;100.00;95123.50;1046984;28;20821;-68
2022/12/13 01:12:06;;;;;;;28.93;14.23;;;;;;;-9.59;100.00;95123.50;1042739;28;20014;-68
2022/12/13 01:12:37;;;;;;;31.67;14.77;;;;;;;-9.60;100.00;95124.47;1034072;28;20543;-69
2022/12/13 01:13:08;;;;;;;29.47;15.03;;;;;;;-9.60;100.00;95121.94;1030030;28;20174;-67
2022/12/13 01:13:38;;;;;;;31.13;15.40;;;;;;;-9.59;100.00;95128.59;1030665;28;20041;-69
2022/12/13 01:14:09;;;;;;;30.37;14.53;;;;;;;-9.58;100.00;95130.19;1030460;28;20025;-67
2022/12/13 01:14:39;;;;;;;30.93;14.10;;;;;;;-9.73;100.00;95107.91;1030845;28;20053;-69
2022/12/13 01:15:10;;;;;;;33.13;15.57;;;;;;;-9.59;100.00;95126.06;1038818;28;20100;-66
2022/12/13 01:15:41;;;;;;;34.00;13.93;;;;;;;-9.59;100.00;95129.41;1042818;28;20390;-67
2022/12/13 01:16:12;;;;;;;31.73;14.70;;;;;;;-9.58;100.00;95114.97;1038522;28;20019;-68
2022/12/13 01:16:42;;;;;;;31.67;15.17;;;;;;;-9.59;100.00;95126.06;1031724;28;20563;-69
2022/12/13 01:17:13;;;;;;;29.73;14.67;;;;;;;-9.58;100.00;95123.38;1034468;28;20065;-67
2022/12/13 01:17:48;;;;;;;33.87;15.57;;;;;;;-9.57;100.00;95114.81;1034708;28;20474;-68
2022/12/13 01:18:18;;;;;;;30.02;15.70;;;;;;;-9.57;100.00;95114.00;1043408;28;20110;-67
2022/12/13 01:18:49;;;;;;;28.97;15.27;;;;;;;-9.56;100.00;95115.59;1046950;28;20114;-67
2022/12/13 01:19:19;;;;;;;30.23;15.60;;;;;;;-9.57;100.00;95111.47;1047265;28;20021;-67
2022/12/13 01:19:50;;;;;;;28.73;14.67;;;;;;;-9.58;100.00;95114.97;1050060;28;20469;-68
2022/12/13 01:20:20;;;;;;;31.00;16.20;;;;;;;-9.60;100.00;95117.66;1046792;28;20012;-68
2022/12/13 01:21:01;;;;;;;29.03;14.07;;;;;;;-9.59;100.00;95113.34;1046808;28;20023;-68
2022/12/13 01:21:31;;;;;;;;;;;;;;;-9.59;100.00;95115.91;1048568;28;20518;-66
2022/12/13 01:22:04;;;;;;;30.37;14.77;;;;;;;-9.58;100.00;95122.59;1051006;28;19912;-66
2022/12/13 01:22:34;;;;;;;34.85;13.77;;;;;;;-9.59;100.00;95123.50;1050272;28;20024;-70
2022/12/13 01:23:05;;;;;;;27.93;13.37;;;;;;;-9.61;100.00;95126.22;1050844;28;20027;-68
2022/12/13 01:23:35;;;;;;;30.10;15.77;;;;;;;-9.60;100.00;95121.94;1051234;28;20024;-67
2022/12/13 01:24:06;;;;;;;31.77;15.30;;;;;;;-9.63;100.00;95119.69;1051102;28;20077;-68
2022/12/13 01:24:40;;;;;;;34.20;14.70;;;;;;;-9.63;100.00;95123.03;1050967;28;20020;-69
2022/12/13 01:25:10;;;;;;;34.53;14.57;;;;;;;-9.64;100.00;95120.66;1051170;28;20023;-68
2022/12/13 01:25:41;;;;;;;37.77;15.17;;;;;;;-9.64;100.00;95120.66;1047247;28;20016;-68
2022/12/13 01:26:13;;;;;;;33.13;15.60;;;;;;;-9.65;100.00;95124.16;1051100;28;20012;-67
2022/12/13 01:26:43;;;;;;;28.83;14.80;;;;;;;-9.65;100.00;95122.41;1046706;28;20104;-67
2022/12/13 01:27:14;;;;;;;32.30;14.90;;;;;;;-9.65;100.00;95124.16;1043220;28;20123;-67
2022/12/13 01:27:44;;;;;;;34.77;15.67;;;;;;;-9.66;100.00;95122.53;1046663;28;20024;-67
2022/12/13 01:28:15;;;;;;;35.40;15.00;;;;;;;-9.66;100.00;95128.41;1046924;28;20390;-70
2022/12/13 01:28:46;;;;;;;32.63;15.50;;;;;;;-9.68;100.00;95119.38;1051082;28;20023;-67
2022/12/13 01:29:17;;;;;;;34.47;15.63;;;;;;;-9.69;100.00;95121.13;1042813;28;20013;-66
2022/12/13 01:29:47;;;;;;;29.73;14.50;;;;;;;-9.69;100.00;95123.66;1038340;28;20045;-67
2022/12/13 01:30:21;;;;;;;35.70;14.70;;;;;;;-9.69;100.00;95121.13;1034619;28;20017;-68
2022/12/13 01:31:02;;;;;;;33.83;15.98;;;;;;;-9.68;100.00;95124.47;1036319;28;20104;-68
2022/12/13 01:31:33;;;;;;;29.38;14.27;;;;;;;-9.69;100.00;95117.78;1048560;28;20350;-69
2022/12/13 01:32:04;;;;;;;31.87;15.17;;;;;;;-9.71;100.00;95112.06;1048810;28;20027;-67
2022/12/13 01:32:37;;;;;;;28.80;14.93;;;;;;;-9.70;100.00;95122.06;1050333;28;20093;-67
2022/12/13 01:33:08;;;;;;;35.65;15.75;;;;;;;-9.69;100.00;95118.59;1050743;28;20456;-64
2022/12/13 01:33:39;;;;;;;33.13;15.53;;;;;;;-9.69;100.00;95122.84;1047450;28;20115;-69
2022/12/13 01:34:10;;;;;;;35.90;15.97;;;;;;;-9.68;100.00;95114.31;1038648;28;20256;-69
2022/12/13 01:34:40;;;;;;;32.90;15.43;;;;;;;-9.71;100.00;95119.69;1038597;28;20013;-65
2022/12/13 01:35:12;;;;;;;32.40;16.37;;;;;;;-9.72;100.00;95118.91;1038821;28;20017;-69
2022/12/13 01:35:43;;;;;;;33.42;16.10;;;;;;;-9.74;100.00;95113.94;1042965;28;20529;-70
2022/12/13 01:36:18;;;;;;;32.13;15.70;;;;;;;-9.72;100.00;95116.34;1050966;28;20055;-67
2022/12/13 01:36:48;;;;;;;33.80;15.60;;;;;;;-9.73;100.00;95109.66;1042712;28;20013;-67
2022/12/13 01:37:19;;;;;;;30.97;15.20;;;;;;;-9.74;100.00;95116.50;1042515;28;20040;-70
2022/12/13 01:37:49;;;;;;;30.40;14.27;;;;;;;-9.74;100.00;95113.94;1042576;28;20419;-66
2022/12/13 01:38:20;;;;;;;30.27;14.73;;;;;;;-9.74;100.00;95113.94;1041309;28;20032;-67
2022/12/13 01:38:50;;;;;;;30.03;14.50;;;;;;;-9.73;100.00;95107.13;1050911;28;20118;-67
2022/12/13 01:39:21;;;;;;;30.70;15.00;;;;;;;-9.74;100.00;95113.94;1046857;28;20078;-68
2022/12/13 01:39:52;;;;;;;34.33;15.87;;;;;;;-9.73;100.00;95110.47;1038572;28;20032;-67
2022/12/13 01:40:34;;;;;;;37.13;16.13;;;;;;;-9.73;100.00;95109.66;1038258;28;20021;-67
2022/12/13 01:41:04;;;;;;;28.15;13.90;;;;;;;-9.71;100.00;95114.59;1038418;28;20025;-70
2022/12/13 01:41:35;;;;;;;33.83;15.67;;;;;;;-9.71;100.00;95109.53;1040197;28;20033;-70
2022/12/13 01:42:05;;;;;;;31.23;14.73;;;;;;;-9.71;100.00;95109.53;1044032;28;20013;-68
2022/12/13 01:42:37;;;;;;;35.90;15.27;;;;;;;-9.71;100.00;95112.06;1047449;28;20021;-67
2022/12/13 01:43:11;;;;;;;31.13;15.10;;;;;;;-9.71;100.00;95112.06;1051302;28;20115;-69
2022/12/13 01:43:41;;;;;;;30.60;14.35;;;;;;;-9.71;100.00;95109.53;1045779;28;20543;-68
2022/12/13 01:44:49;;;;;;;34.00;14.83;;;;;;;-9.73;100.00;95113.00;1046419;28;20042;-68
2022/12/13 01:45:24;;;;;;;29.70;13.00;;;;;;;-9.75;100.00;95107.28;1048012;28;20096;-66
2022/12/13 01:45:58;;;;;;;31.27;14.18;;;;;;;-9.75;100.00;95102.22;1046828;28;20031;-69
2022/12/13 01:46:33;;;;;;;31.00;14.75;;;;;;;-9.75;100.00;95102.22;1046561;28;20023;-65
2022/12/13 01:47:03;;;;;;;29.23;13.23;;;;;;;-9.75;100.00;95098.88;1046933;28;20510;-69
2022/12/13 01:47:45;;;;;;;29.10;13.38;;;;;;;-9.76;100.00;95100.63;1047766;28;20099;-67
2022/12/13 01:48:18;;;;;;;28.13;12.27;;;;;;;-9.76;100.00;95098.09;1051001;28;20547;-68
2022/12/13 01:49:01;;;;;;;29.83;13.52;;;;;;;-9.78;100.00;95100.00;1042730;28;20493;-66
2022/12/13 01:49:32;;;;;;;30.02;14.15;;;;;;;-9.91;100.00;95069.16;1042595;28;20611;-68
2022/12/13 01:50:09;;;;;;;28.23;13.47;;;;;;;-9.78;100.00;95094.13;1034558;28;20038;-68
2022/12/13 01:50:42;;;;;;;32.03;14.23;;;;;;;-9.79;100.00;95095.03;1041210;28;20025;-72
2022/12/13 01:51:14;;;;;;;26.63;13.57;;;;;;;-9.80;100.00;95096.78;1040264;28;20024;-67
2022/12/13 01:51:50;;;;;;;32.90;14.35;;;;;;;-9.80;100.00;95088.38;1042596;28;20036;-67
2022/12/13 01:52:24;;;;;;;29.23;13.02;;;;;;;-9.80;100.00;95091.72;1043305;28;20452;-67
2022/12/13 01:52:58;;;;;;;32.20;14.32;;;;;;;-9.84;100.00;95087.91;1048443;28;20066;-67
2022/12/13 01:53:30;;;;;;;25.05;13.43;;;;;;;-9.84;100.00;95082.81;1048557;28;20020;-69
2022/12/13 01:54:01;;;;;;;29.05;13.13;;;;;;;-9.85;100.00;95085.53;1042518;28;20555;-67
2022/12/13 01:54:38;;;;;;;26.88;12.30;;;;;;;-9.85;100.00;95072.84;1034436;28;20507;-69
2022/12/13 01:55:09;;;;;;;32.33;13.35;;;;;;;-9.84;100.00;95082.03;1035792;28;20041;-70
2022/12/13 01:55:39;;;;;;;28.57;13.50;;;;;;;-9.92;100.00;95062.50;1036546;28;20025;-69
2022/12/13 01:56:15;;;;;;;33.10;14.30;;;;;;;-9.84;100.00;95079.50;1036614;28;20380;-68
2022/12/13 01:56:51;;;;;;;27.25;13.95;;;;;;;-9.83;100.00;95076.00;1034194;28;20022;-67
2022/12/13 01:57:21;;;;;;;34.38;14.63;;;;;;;-9.85;100.00;95080.47;1035875;28;20438;-68
2022/12/13 01:57:52;;;;;;;33.43;13.90;;;;;;;-9.87;100.00;95080.59;1041495;28;20073;-67
2022/12/13 01:58:25;;;;;;;32.17;14.73;;;;;;;-9.87;100.00;95078.06;1043979;28;20052;-66
2022/12/13 01:58:56;;;;;;;27.38;13.98;;;;;;;-9.86;100.00;95076.31;1042401;28;20067;-66
2022/12/13 01:59:26;;;;;;;33.83;14.10;;;;;;;-9.86;100.00;95081.38;1042461;28;20072;-66
2022/12/13 01:59:57;;;;;;;31.30;14.63;;;;;;;-9.87;100.00;95078.06;1039701;28;20014;-69
2022/12/13 02:00:27;;;;;;;39.57;15.20;;;;;;;-9.85;100.00;95088.84;1046714;28;20032;-65
2022/12/13 02:00:58;;;;;;;31.53;15.13;;;;;;;-9.85;100.00;95083.78;1050741;28;20024;-68
2022/12/13 02:01:29;;;;;;;33.85;14.20;;;;;;;-9.85;100.00;95083.78;1046882;28;20040;-69
2022/12/13 02:01:59;;;;;;;30.77;15.20;;;;;;;-9.85;100.00;95083.78;1042544;28;20025;-70
2022/12/13 02:02:30;;;;;;;35.60;15.13;;;;;;;-9.85;100.00;95086.31;1037651;28;20108;-68
2022/12/13 02:03:00;;;;;;;29.83;14.07;;;;;;;-9.85;100.00;95086.31;1038572;28;20026;-65
2022/12/13 02:03:31;;;;;;;30.60;14.43;;;;;;;-9.86;100.00;95082.19;1038784;28;20547;-66
2022/12/13 02:04:01;;;;;;;31.33;14.17;;;;;;;-9.83;100.00;95081.88;1042647;28;20037;-66
2022/12/13 02:04:49;;;;;;;30.77;13.80;;;;;;;-9.80;100.00;95076.50;1041570;28;20426;-69
2022/12/13 02:05:22;;;;;;;32.05;13.75;;;;;;;-9.78;100.00;95076.34;1040837;28;20029;-68
2022/12/13 02:06:09;;;;;;;30.83;14.82;;;;;;;-9.75;100.00;95079.38;1045333;28;20052;-67
2022/12/13 02:06:42;;;;;;;33.65;14.32;;;;;;;-9.77;100.00;95081.25;1051023;28;20030;-68
2022/12/13 02:07:13;;;;;;;32.28;14.68;;;;;;;-9.75;100.00;95081.13;1045532;28;20426;-67
2022/12/13 02:07:44;;;;;;;32.20;14.10;;;;;;;-9.75;100.00;95074.31;1042238;28;20040;-67
2022/12/13 02:08:14;;;;;;;26.40;14.10;;;;;;;-9.76;100.00;95077.78;1034273;28;20022;-70
2022/12/13 02:08:45;;;;;;;34.77;15.70;;;;;;;-9.76;100.00;95082.88;1034331;28;20009;-67
2022/12/13 02:09:16;;;;;;;30.20;14.40;;;;;;;-9.75;100.00;95081.13;1034315;28;20056;-67
2022/12/13 02:09:46;;;;;;;33.00;14.97;;;;;;;-9.74;100.00;95077.63;1038869;28;20272;-69
2022/12/13 02:10:17;;;;;;;36.57;15.87;;;;;;;-9.73;100.00;95077.47;1046920;28;20021;-67
2022/12/13 02:10:47;;;;;;;33.00;14.30;;;;;;;-9.74;100.00;95080.97;1050838;28;20123;-67
2022/12/13 02:11:18;;;;;;;32.47;14.07;;;;;;;-9.70;100.00;95073.03;1047795;28;20126;-66
2022/12/13 02:11:48;;;;;;;28.03;14.60;;;;;;;-9.70;100.00;95075.56;1042632;28;20026;-70
2022/12/13 02:12:19;;;;;;;31.53;14.33;;;;;;;-9.68;100.00;95066.06;1042090;28;20016;-66
2022/12/13 02:12:49;;;;;;;30.37;13.60;;;;;;;-9.70;100.00;95068.75;1043673;28;20080;-69
2022/12/13 02:13:19;;;;;;;31.63;14.77;;;;;;;-9.68;100.00;95077.03;1046667;28;20048;-69
2022/12/13 02:13:50;;;;;;;33.60;14.97;;;;;;;-9.66;100.00;95070.03;1051090;28;20031;-67
2022/12/13 02:14:20;;;;;;;29.60;14.93;;;;;;;-9.64;100.00;95072.44;1051268;28;20482;-67
2022/12/13 02:14:51;;;;;;;33.23;15.70;;;;;;;-9.63;100.00;95068.94;1050841;28;20065;-67
2022/12/13 02:15:21;;;;;;;31.67;15.17;;;;;;;-9.62;100.00;95067.97;1042378;28;20479;-65
2022/12/13 02:15:54;;;;;;;31.43;15.20;;;;;;;-9.62;100.00;95067.97;1042800;28;20005;-66
2022/12/13 02:16:37;;;;;;;33.45;15.73;;;;;;;-9.61;100.00;95067.84;1038648;28;20468;-67
2022/12/13 02:17:11;;;;;;;27.83;14.98;;;;;;;-9.61;100.00;95062.75;1046601;28;20074;-66
2022/12/13 02:18:05;;;;;;;28.45;14.85;;;;;;;-9.60;100.00;95066.09;1046690;28;20378;-67
2022/12/13 02:18:48;;;;;;;32.80;13.77;;;;;;;-9.59;100.00;95067.66;1046881;28;20028;-70
2022/12/13 02:19:43;;;;;;;30.20;13.73;;;;;;;-9.59;100.00;95072.75;1039643;28;20928;-67
2022/12/13 02:20:52;;;;;;;32.13;15.48;;;;;;;-9.57;100.00;95066.56;1035535;28;20387;-66
2022/12/13 02:21:44;;;;;;;30.88;13.77;;;;;;;-9.59;100.00;95060.88;1048060;28;20568;-68
2022/12/13 02:22:23;;;;;;;29.90;13.70;;;;;;;-9.57;100.00;95069.09;1046345;28;20537;-66
2022/12/13 02:23:02;;;;;;;27.73;13.05;;;;;;;-9.58;100.00;95066.75;1045208;28;20099;-65
2022/12/13 02:23:54;;;;;;;26.50;13.00;;;;;;;-9.57;100.00;95063.25;1042849;28;20083;-69
2022/12/13 02:24:54;;;;;;;29.60;13.43;;;;;;;-9.58;100.00;95059.91;1051274;28;20012;-68
2022/12/13 02:25:44;;;;;;;30.52;14.38;;;;;;;-9.58;100.00;95056.59;1049655;28;20032;-67
2022/12/13 02:26:30;;;;;;;35.67;14.68;;;;;;;-9.57;100.00;95055.63;1046750;28;20141;-70
2022/12/13 02:27:21;;;;;;;30.85;13.38;;;;;;;-9.58;100.00;95059.13;1046735;28;20461;-66
2022/12/13 02:28:01;;;;;;;31.00;13.82;;;;;;;-9.59;100.00;95055.78;1041198;28;20028;-67
2022/12/13 02:28:51;;;;;;;28.45;13.57;;;;;;;-9.58;100.00;95056.59;1043231;28;20037;-66